createdAt,value
2023-05-26T00:00:29.178Z,43.85
2023-05-26T00:01:29.186Z,43.77
2023-05-26T00:02:29.303Z,43.71
2023-05-26T00:03:29.493Z,43.69
2023-05-26T00:04:29.338Z,43.68
2023-05-26T00:05:29.307Z,43.63
2023-05-26T00:06:29.329Z,43.67
2023-05-26T00:07:29.361Z,43.63
2023-05-26T00:08:29.391Z,43.59
2023-05-26T00:09:29.481Z,43.57
2023-05-26T00:10:29.460Z,43.62
2023-05-26T00:11:29.494Z,43.63
2023-05-26T00:12:29.521Z,43.63
2023-05-26T00:13:29.605Z,43.63
2023-05-26T00:14:29.622Z,43.63
2023-05-26T00:15:29.670Z,43.65
2023-05-26T00:16:29.773Z,43.61
2023-05-26T00:17:29.764Z,43.65
2023-05-26T00:18:29.817Z,43.68
2023-05-26T00:19:29.875Z,43.65
2023-05-26T00:20:30.033Z,43.64
2023-05-26T00:21:29.976Z,43.68
2023-05-26T00:22:30.016Z,43.66
2023-05-26T00:23:30.062Z,43.67
2023-05-26T00:24:30.117Z,43.71
2023-05-26T00:25:30.169Z,43.70
2023-05-26T00:26:30.238Z,43.70
2023-05-26T00:27:30.282Z,43.68
2023-05-26T00:28:30.337Z,43.67
2023-05-26T00:29:30.408Z,43.70
2023-05-26T00:30:30.443Z,43.71
2023-05-26T00:31:30.705Z,43.72
2023-05-26T00:32:30.578Z,43.72
2023-05-26T00:33:30.600Z,43.77
2023-05-26T00:34:30.660Z,43.76
2023-05-26T00:35:30.711Z,43.77
2023-05-26T00:36:30.772Z,43.75
2023-05-26T00:37:30.816Z,43.76
2023-05-26T00:38:30.869Z,43.76
2023-05-26T00:39:30.940Z,43.74
2023-05-26T00:40:30.990Z,43.76
2023-05-26T00:41:31.041Z,43.77
2023-05-26T00:42:31.093Z,43.77
2023-05-26T00:43:31.159Z,43.78
2023-05-26T00:44:31.215Z,43.79
2023-05-26T00:45:31.317Z,43.82
2023-05-26T00:46:31.378Z,43.81
2023-05-26T00:47:31.397Z,43.82
2023-05-26T00:48:31.435Z,43.82
2023-05-26T00:49:31.483Z,43.83
2023-05-26T00:50:31.546Z,43.83
2023-05-26T00:51:31.603Z,43.87
2023-05-26T00:52:31.666Z,43.86
2023-05-26T00:53:31.724Z,43.88
2023-05-26T00:54:31.767Z,43.86
2023-05-26T00:55:31.828Z,43.87
2023-05-26T00:56:31.888Z,43.91
2023-05-26T00:57:31.940Z,43.87
2023-05-26T00:58:32.006Z,43.89
2023-05-26T00:59:32.055Z,43.92
2023-05-26T01:00:32.112Z,43.94
2023-05-26T01:01:32.298Z,43.92
2023-05-26T01:02:32.302Z,43.94
2023-05-26T01:03:32.389Z,43.94
2023-05-26T01:04:32.347Z,43.96
2023-05-26T01:05:32.419Z,43.92
2023-05-26T01:06:32.464Z,43.93
2023-05-26T01:07:32.521Z,43.94
2023-05-26T01:08:32.584Z,43.95
2023-05-26T01:09:32.664Z,43.93
2023-05-26T01:10:32.724Z,43.92
2023-05-26T01:11:32.792Z,43.93
2023-05-26T01:12:32.866Z,43.94
2023-05-26T01:13:32.917Z,43.95
2023-05-26T01:14:32.977Z,43.93
2023-05-26T01:15:33.067Z,43.95
2023-05-26T01:16:33.157Z,43.93
2023-05-26T01:17:33.275Z,43.97
2023-05-26T01:18:33.260Z,43.98
2023-05-26T01:19:33.323Z,43.98
2023-05-26T01:20:33.470Z,44.02
2023-05-26T01:21:33.451Z,44.00
2023-05-26T01:22:33.514Z,44.01
2023-05-26T01:23:33.596Z,44.02
2023-05-26T01:24:33.644Z,44.04
2023-05-26T01:25:33.705Z,44.00
2023-05-26T01:26:33.760Z,44.03
2023-05-26T01:27:33.823Z,44.02
2023-05-26T01:28:33.884Z,44.03
2023-05-26T01:29:33.939Z,44.03
2023-05-26T01:30:34.009Z,44.08
2023-05-26T01:31:34.071Z,44.05
2023-05-26T01:32:34.148Z,44.06
2023-05-26T01:33:34.272Z,44.06
2023-05-26T01:34:34.254Z,44.04
2023-05-26T01:35:34.317Z,44.06
2023-05-26T01:36:34.407Z,44.06
2023-05-26T01:37:34.459Z,44.06
2023-05-26T01:38:34.524Z,44.07
2023-05-26T01:39:34.587Z,44.06
2023-05-26T01:40:34.671Z,44.09
2023-05-26T01:41:34.699Z,44.06
2023-05-26T01:42:34.747Z,44.12
2023-05-26T01:43:34.785Z,44.10
2023-05-26T01:44:34.834Z,44.08
2023-05-26T01:45:34.897Z,44.09
2023-05-26T01:46:35.017Z,44.10
2023-05-26T01:47:35.096Z,44.10
2023-05-26T01:48:35.076Z,44.08
2023-05-26T01:49:35.141Z,44.09
2023-05-26T01:50:35.189Z,44.10
2023-05-26T01:51:35.241Z,44.10
2023-05-26T01:52:35.298Z,44.13
2023-05-26T01:53:35.372Z,44.10
2023-05-26T01:54:35.453Z,44.16
2023-05-26T01:55:35.522Z,44.12
2023-05-26T01:56:35.594Z,44.14
2023-05-26T01:57:35.658Z,44.15
2023-05-26T01:58:35.718Z,44.14
2023-05-26T01:59:35.779Z,44.10
2023-05-26T02:00:35.836Z,44.13
2023-05-26T02:01:35.898Z,44.12
2023-05-26T02:02:36.025Z,44.15
2023-05-26T02:03:36.009Z,44.18
2023-05-26T02:04:35.972Z,44.13
2023-05-26T02:05:36.019Z,44.17
2023-05-26T02:06:36.037Z,44.15
2023-05-26T02:07:36.064Z,44.15
2023-05-26T02:08:36.105Z,44.13
2023-05-26T02:09:36.172Z,44.16
2023-05-26T02:10:36.255Z,44.16
2023-05-26T02:11:36.271Z,44.16
2023-05-26T02:12:36.332Z,44.18
2023-05-26T02:13:36.400Z,44.18
2023-05-26T02:14:36.456Z,44.18
2023-05-26T02:15:36.557Z,44.17
2023-05-26T02:16:36.611Z,44.20
2023-05-26T02:17:36.678Z,44.21
2023-05-26T02:18:36.710Z,44.20
2023-05-26T02:19:36.774Z,44.20
2023-05-26T02:20:36.895Z,44.20
2023-05-26T02:21:36.942Z,44.18
2023-05-26T02:22:36.958Z,44.19
2023-05-26T02:23:37.025Z,44.19
2023-05-26T02:24:37.078Z,44.21
2023-05-26T02:25:37.139Z,44.20
2023-05-26T02:26:37.206Z,44.20
2023-05-26T02:27:37.265Z,44.18
2023-05-26T02:28:37.368Z,44.20
2023-05-26T02:29:37.399Z,44.16
2023-05-26T02:30:37.459Z,44.20
2023-05-26T02:31:42.521Z,44.18
2023-05-26T02:32:37.647Z,44.19
2023-05-26T02:33:37.535Z,44.22
2023-05-26T02:34:37.556Z,44.21
2023-05-26T02:35:37.546Z,44.20
2023-05-26T02:36:37.547Z,44.21
2023-05-26T02:37:37.617Z,44.16
2023-05-26T02:38:37.554Z,44.20
2023-05-26T02:39:37.566Z,44.20
2023-05-26T02:40:37.562Z,44.20
2023-05-26T02:41:37.560Z,44.22
2023-05-26T02:42:37.573Z,44.21
2023-05-26T02:43:37.548Z,44.22
2023-05-26T02:44:37.543Z,44.21
2023-05-26T02:45:37.619Z,44.23
2023-05-26T02:46:37.520Z,44.20
2023-05-26T02:47:37.532Z,44.23
2023-05-26T02:48:37.525Z,44.22
2023-05-26T02:49:37.529Z,44.20
2023-05-26T02:50:37.517Z,44.23
2023-05-26T02:51:37.491Z,44.24
2023-05-26T02:52:37.533Z,44.24
2023-05-26T02:53:37.624Z,44.26
2023-05-26T02:54:37.650Z,44.25
2023-05-26T02:55:37.732Z,44.23
2023-05-26T02:56:37.782Z,44.24
2023-05-26T02:57:37.855Z,44.25
2023-05-26T02:58:37.916Z,44.27
2023-05-26T02:59:37.990Z,44.26
2023-05-26T03:00:38.000Z,44.25
2023-05-26T03:01:38.055Z,44.28
2023-05-26T03:02:38.176Z,44.28
2023-05-26T03:03:38.211Z,44.25
2023-05-26T03:04:38.255Z,44.26
2023-05-26T03:05:38.327Z,44.25
2023-05-26T03:06:38.389Z,44.23
2023-05-26T03:07:38.447Z,44.24
2023-05-26T03:08:38.515Z,44.25
2023-05-26T03:09:38.624Z,44.28
2023-05-26T03:10:38.654Z,44.25
2023-05-26T03:11:38.712Z,44.29
2023-05-26T03:12:38.790Z,44.28
2023-05-26T03:13:38.852Z,44.28
2023-05-26T03:14:38.921Z,44.25
2023-05-26T03:15:38.980Z,44.24
2023-05-26T03:16:39.094Z,44.26
2023-05-26T03:17:39.146Z,44.25
2023-05-26T03:18:39.171Z,44.27
2023-05-26T03:19:39.268Z,44.28
2023-05-26T03:20:39.393Z,44.26
2023-05-26T03:21:48.872Z,44.25
2023-05-26T03:22:47.359Z,44.28
2023-05-26T03:23:39.333Z,44.30
2023-05-26T03:24:39.323Z,44.30
2023-05-26T03:25:39.348Z,44.29
2023-05-26T03:26:39.317Z,44.27
2023-05-26T03:27:39.327Z,44.29
2023-05-26T03:28:39.308Z,44.28
2023-05-26T03:29:39.312Z,44.28
2023-05-26T03:30:39.311Z,44.24
2023-05-26T03:31:39.340Z,44.23
2023-05-26T03:32:39.337Z,44.25
2023-05-26T03:33:39.310Z,44.26
2023-05-26T03:34:39.313Z,44.24
2023-05-26T03:35:39.337Z,44.25
2023-05-26T03:36:39.319Z,44.25
2023-05-26T03:37:39.304Z,44.24
2023-05-26T03:38:39.305Z,44.27
2023-05-26T03:39:39.321Z,44.22
2023-05-26T03:40:39.309Z,44.26
2023-05-26T03:41:39.331Z,44.28
2023-05-26T03:42:39.306Z,44.27
2023-05-26T03:43:39.293Z,44.26
2023-05-26T03:44:39.321Z,44.29
2023-05-26T03:45:39.287Z,44.27
2023-05-26T03:46:39.306Z,44.32
2023-05-26T03:47:39.357Z,44.29
2023-05-26T03:48:39.402Z,44.29
2023-05-26T03:49:39.446Z,44.29
2023-05-26T03:50:39.499Z,44.28
2023-05-26T03:51:39.562Z,44.30
2023-05-26T03:52:39.608Z,44.30
2023-05-26T03:53:39.730Z,44.27
2023-05-26T03:54:39.719Z,44.29
2023-05-26T03:55:39.762Z,44.29
2023-05-26T03:56:39.833Z,44.28
2023-05-26T03:57:39.867Z,44.29
2023-05-26T03:58:39.886Z,44.27
2023-05-26T03:59:39.964Z,44.25
2023-05-26T04:00:40.043Z,44.28
2023-05-26T04:01:40.095Z,44.25
2023-05-26T04:02:40.332Z,44.26
2023-05-26T04:03:42.116Z,44.28
2023-05-26T04:04:40.211Z,44.31
2023-05-26T04:05:40.194Z,44.29
2023-05-26T04:06:40.196Z,44.32
2023-05-26T04:07:40.190Z,44.31
2023-05-26T04:08:40.184Z,44.31
2023-05-26T04:09:40.185Z,44.29
2023-05-26T04:10:40.185Z,44.29
2023-05-26T04:11:40.247Z,44.30
2023-05-26T04:12:40.310Z,44.31
2023-05-26T04:13:40.411Z,44.29
2023-05-26T04:14:40.459Z,44.31
2023-05-26T04:15:40.521Z,44.30
2023-05-26T04:16:40.663Z,44.28
2023-05-26T04:17:40.706Z,44.28
2023-05-26T04:18:40.715Z,44.28
2023-05-26T04:19:40.780Z,44.31
2023-05-26T04:20:40.832Z,44.31
2023-05-26T04:21:40.863Z,44.30
2023-05-26T04:22:40.907Z,44.29
2023-05-26T04:23:40.972Z,44.30
2023-05-26T04:24:41.014Z,44.29
2023-05-26T04:25:41.074Z,44.32
2023-05-26T04:26:41.141Z,44.29
2023-05-26T04:27:41.199Z,44.31
2023-05-26T04:28:41.280Z,44.29
2023-05-26T04:29:41.356Z,44.28
2023-05-26T04:30:41.410Z,44.27
2023-05-26T04:31:41.532Z,44.27
2023-05-26T04:32:41.654Z,44.28
2023-05-26T04:33:41.614Z,44.29
2023-05-26T04:34:42.308Z,44.30
2023-05-26T04:35:41.742Z,44.30
2023-05-26T04:36:41.820Z,44.32
2023-05-26T04:37:41.881Z,44.28
2023-05-26T04:38:41.933Z,44.29
2023-05-26T04:39:41.989Z,44.27
2023-05-26T04:40:42.041Z,44.28
2023-05-26T04:41:42.114Z,44.30
2023-05-26T04:42:42.181Z,44.28
2023-05-26T04:43:42.345Z,44.32
2023-05-26T04:44:42.322Z,44.30
2023-05-26T04:45:42.427Z,44.28
2023-05-26T04:46:42.636Z,44.29
2023-05-26T04:47:42.566Z,44.28
2023-05-26T04:48:42.608Z,44.33
2023-05-26T04:49:42.667Z,44.30
2023-05-26T04:50:42.873Z,44.30
2023-05-26T04:51:42.802Z,44.29
2023-05-26T04:52:42.884Z,44.30
2023-05-26T04:53:42.961Z,44.32
2023-05-26T04:54:43.048Z,44.31
2023-05-26T04:55:43.106Z,44.30
2023-05-26T04:56:43.175Z,44.28
2023-05-26T04:57:43.256Z,44.31
2023-05-26T04:58:43.315Z,44.30
2023-05-26T04:59:43.393Z,44.30
2023-05-26T05:00:43.457Z,44.30
2023-05-26T05:01:43.629Z,44.26
2023-05-26T05:02:43.621Z,44.27
2023-05-26T05:03:43.722Z,44.26
2023-05-26T05:04:43.734Z,44.29
2023-05-26T05:05:43.820Z,44.29
2023-05-26T05:06:44.328Z,44.29
2023-05-26T05:07:43.940Z,44.27
2023-05-26T05:08:44.052Z,44.27
2023-05-26T05:09:44.065Z,44.25
2023-05-26T05:10:44.143Z,44.18
2023-05-26T05:11:44.335Z,44.19
2023-05-26T05:12:44.312Z,44.19
2023-05-26T05:13:44.361Z,44.24
2023-05-26T05:14:44.428Z,44.29
2023-05-26T05:15:44.755Z,44.31
2023-05-26T05:16:45.105Z,44.39
2023-05-26T05:17:44.727Z,44.43
2023-05-26T05:18:44.728Z,44.28
2023-05-26T05:19:44.798Z,44.42
2023-05-26T05:20:45.458Z,44.46
2023-05-26T05:21:45.331Z,44.48
2023-05-26T05:22:45.074Z,44.45
2023-05-26T05:23:45.087Z,44.40
2023-05-26T05:24:45.156Z,44.45
2023-05-26T05:25:45.233Z,44.61
2023-05-26T05:26:45.281Z,44.73
2023-05-26T05:27:45.325Z,44.86
2023-05-26T05:28:45.381Z,44.93
2023-05-26T05:29:45.406Z,45.16
2023-05-26T05:30:46.417Z,45.21
2023-05-26T05:31:45.497Z,45.28
2023-05-26T05:32:45.586Z,45.41
2023-05-26T05:33:45.577Z,45.67
2023-05-26T05:34:45.841Z,45.72
2023-05-26T05:35:45.675Z,45.80
2023-05-26T05:36:45.864Z,46.10
2023-05-26T05:37:45.563Z,46.09
2023-05-26T05:38:45.564Z,46.35
2023-05-26T05:39:45.585Z,46.48
2023-05-26T05:40:45.812Z,46.55
2023-05-26T05:41:45.839Z,46.63
2023-05-26T05:42:45.635Z,46.77
2023-05-26T05:43:45.623Z,46.71
2023-05-26T05:44:45.653Z,47.08
2023-05-26T05:45:45.663Z,47.20
2023-05-26T05:46:45.893Z,47.31
2023-05-26T05:47:45.716Z,47.02
2023-05-26T05:48:45.692Z,47.36
2023-05-26T05:49:45.754Z,47.24
2023-05-26T05:50:45.937Z,47.40
2023-05-26T05:51:45.853Z,47.50
2023-05-26T05:52:46.745Z,47.48
2023-05-26T05:53:45.832Z,47.66
2023-05-26T05:54:45.791Z,47.61
2023-05-26T05:55:45.780Z,47.46
2023-05-26T05:57:49.040Z,47.54
2023-05-26T05:58:45.865Z,47.58
2023-05-26T05:59:49.109Z,47.49
2023-05-26T06:02:17.614Z,47.60
2023-05-26T06:02:49.187Z,47.40
2023-05-26T06:03:46.964Z,47.42
2023-05-26T06:04:53.201Z,47.62
2023-05-26T06:08:53.107Z,47.80
2023-05-26T06:09:48.911Z,47.81
2023-05-26T06:10:45.934Z,47.96
2023-05-26T06:11:50.093Z,47.93
2023-05-26T06:12:45.680Z,47.87
2023-05-26T06:13:45.672Z,47.84
2023-05-26T06:14:45.680Z,47.73
2023-05-26T06:15:45.653Z,47.72
2023-05-26T06:16:45.890Z,47.74
2023-05-26T06:17:46.038Z,47.84
2023-05-26T06:18:45.606Z,47.89
2023-05-26T06:19:45.594Z,47.83
2023-05-26T06:20:46.922Z,47.72
2023-05-26T06:21:45.849Z,47.72
2023-05-26T06:22:45.642Z,47.81
2023-05-26T06:23:45.693Z,47.73
2023-05-26T06:24:48.986Z,47.69
2023-05-26T06:25:45.703Z,47.65
2023-05-26T06:26:45.850Z,47.55
2023-05-26T06:27:45.671Z,47.62
2023-05-26T06:28:45.700Z,47.64
2023-05-26T06:29:45.660Z,47.63
2023-05-26T06:30:45.906Z,47.65
2023-05-26T06:31:45.926Z,47.65
2023-05-26T06:32:45.671Z,47.67
2023-05-26T06:33:45.697Z,47.65
2023-05-26T06:34:45.599Z,47.64
2023-05-26T06:35:45.570Z,47.53
2023-05-26T06:36:45.599Z,47.60
2023-05-26T06:37:45.552Z,47.58
2023-05-26T06:38:45.534Z,47.53
2023-05-26T06:39:45.551Z,47.51
2023-05-26T06:40:46.859Z,47.35
2023-05-26T06:41:45.864Z,47.33
2023-05-26T06:42:45.861Z,47.45
2023-05-26T06:43:45.614Z,47.41
2023-05-26T06:44:48.463Z,47.36
2023-05-26T06:45:45.645Z,47.55
2023-05-26T06:46:53.330Z,47.51
2023-05-26T06:47:46.183Z,47.61
2023-05-26T06:48:45.608Z,47.54
2023-05-26T06:49:45.601Z,47.34
2023-05-26T06:50:45.837Z,47.18
2023-05-26T06:52:53.037Z,47.13
2023-05-26T06:53:48.746Z,47.37
2023-05-26T06:54:45.589Z,47.39
2023-05-26T06:57:46.480Z,47.75
2023-05-26T06:58:46.458Z,47.79
2023-05-26T06:59:45.432Z,47.79
2023-05-26T07:00:45.527Z,47.89
2023-05-26T07:01:45.406Z,47.85
2023-05-26T07:02:45.406Z,47.89
2023-05-26T07:03:45.348Z,47.82
2023-05-26T07:04:45.321Z,47.83
2023-05-26T07:05:54.700Z,47.85
2023-05-26T07:06:47.647Z,47.83
2023-05-26T07:07:45.744Z,47.90
2023-05-26T07:08:45.533Z,47.78
2023-05-26T07:09:45.249Z,47.74
2023-05-26T07:10:52.615Z,47.68
2023-05-26T07:11:48.564Z,47.64
2023-05-26T07:12:45.719Z,47.57
2023-05-26T07:13:46.142Z,47.59
2023-05-26T07:14:45.143Z,47.53
2023-05-26T07:15:45.105Z,47.50
2023-05-26T07:16:45.507Z,47.52
2023-05-26T07:17:45.086Z,47.49
2023-05-26T07:18:45.048Z,47.43
2023-05-26T07:19:45.030Z,47.52
2023-05-26T07:20:46.400Z,47.48
2023-05-26T07:21:45.384Z,47.50
2023-05-26T07:22:45.005Z,47.53
2023-05-26T07:23:45.002Z,47.57
2023-05-26T07:24:45.040Z,47.55
2023-05-26T07:25:45.015Z,47.51
2023-05-26T07:26:45.375Z,47.50
2023-05-26T07:27:45.012Z,47.45
2023-05-26T07:28:45.010Z,47.37
2023-05-26T07:29:45.379Z,47.39
2023-05-26T07:30:45.244Z,47.42
2023-05-26T07:31:48.637Z,47.39
2023-05-26T07:32:45.389Z,47.37
2023-05-26T07:34:44.976Z,47.34
2023-05-26T07:35:48.390Z,47.25
2023-05-26T07:36:44.922Z,47.34
2023-05-26T07:37:44.876Z,47.35
2023-05-26T07:38:44.837Z,47.36
2023-05-26T07:39:44.884Z,47.29
2023-05-26T07:40:45.819Z,47.24
2023-05-26T07:41:44.790Z,47.25
2023-05-26T07:44:44.703Z,47.19
2023-05-26T07:45:45.032Z,47.11
2023-05-26T07:46:44.770Z,47.04
2023-05-26T07:47:44.672Z,47.06
2023-05-26T07:48:44.622Z,47.07
2023-05-26T07:49:44.915Z,47.09
2023-05-26T07:50:45.836Z,47.10
2023-05-26T07:51:44.880Z,47.06
2023-05-26T07:52:44.495Z,47.04
2023-05-26T07:53:47.738Z,47.05
2023-05-26T07:54:45.407Z,46.99
2023-05-26T07:55:48.306Z,46.93
2023-05-26T07:57:00.920Z,46.88
2023-05-26T07:57:44.846Z,46.80
2023-05-26T07:58:51.780Z,46.73
2023-05-26T07:59:44.321Z,46.63
2023-05-26T08:00:44.393Z,46.56
2023-05-26T08:01:44.387Z,46.36
2023-05-26T08:02:45.503Z,46.34
2023-05-26T08:03:44.258Z,46.25
2023-05-26T08:04:44.168Z,46.26
2023-05-26T08:05:44.469Z,46.26
2023-05-26T08:06:44.385Z,46.14
2023-05-26T08:07:44.237Z,46.08
2023-05-26T08:08:44.283Z,46.12
2023-05-26T08:09:44.310Z,46.17
2023-05-26T08:10:44.333Z,46.08
2023-05-26T08:11:44.387Z,46.00
2023-05-26T08:12:44.432Z,45.86
2023-05-26T08:13:44.426Z,45.77
2023-05-26T08:14:44.448Z,45.80
2023-05-26T08:15:44.779Z,45.85
2023-05-26T08:16:44.580Z,45.81
2023-05-26T08:17:44.522Z,45.92
2023-05-26T08:18:44.544Z,45.99
2023-05-26T08:19:44.542Z,46.07
2023-05-26T08:20:48.420Z,46.04
2023-05-26T08:21:51.985Z,46.12
2023-05-26T08:22:44.517Z,46.11
2023-05-26T08:23:44.444Z,46.06
2023-05-26T08:24:44.415Z,46.10
2023-05-26T08:25:44.674Z,46.13
2023-05-26T08:26:46.066Z,46.18
2023-05-26T08:27:44.329Z,46.19
2023-05-26T08:28:44.288Z,46.18
2023-05-26T08:29:44.224Z,46.13
2023-05-26T08:30:44.401Z,46.10
2023-05-26T08:31:44.203Z,46.09
2023-05-26T08:32:44.414Z,46.11
2023-05-26T08:33:44.134Z,46.09
2023-05-26T08:34:44.036Z,46.13
2023-05-26T08:35:44.243Z,46.10
2023-05-26T08:36:43.950Z,46.10
2023-05-26T08:37:47.606Z,46.03
2023-05-26T08:38:43.899Z,45.98
2023-05-26T08:39:43.849Z,45.99
2023-05-26T08:40:43.814Z,46.04
2023-05-26T08:41:43.902Z,46.00
2023-05-26T08:42:43.908Z,45.94
2023-05-26T08:43:53.358Z,45.83
2023-05-26T08:44:43.698Z,45.81
2023-05-26T08:45:43.675Z,45.87
2023-05-26T08:46:44.913Z,45.89
2023-05-26T08:47:43.633Z,45.86
2023-05-26T08:48:43.534Z,45.76
2023-05-26T08:49:43.508Z,45.78
2023-05-26T08:50:43.475Z,45.73
2023-05-26T08:51:43.445Z,45.65
2023-05-26T08:52:54.210Z,45.70
2023-05-26T08:53:43.369Z,45.64
2023-05-26T08:54:43.329Z,45.61
2023-05-26T08:55:43.294Z,45.57
2023-05-26T08:56:43.401Z,45.46
2023-05-26T08:57:43.232Z,45.50
2023-05-26T08:58:43.193Z,45.42
2023-05-26T08:59:43.158Z,45.43
2023-05-26T09:00:43.218Z,45.37
2023-05-26T09:01:43.456Z,45.41
2023-05-26T09:02:43.096Z,45.40
2023-05-26T09:03:43.032Z,45.39
2023-05-26T09:04:42.951Z,45.33
2023-05-26T09:05:42.919Z,45.16
2023-05-26T09:06:44.948Z,45.10
2023-05-26T09:07:42.827Z,45.09
2023-05-26T09:08:42.785Z,44.92
2023-05-26T09:09:45.968Z,44.82
2023-05-26T09:10:42.709Z,44.77
2023-05-26T09:11:47.422Z,44.72
2023-05-26T09:12:42.630Z,44.67
2023-05-26T09:13:42.585Z,44.59
2023-05-26T09:14:42.595Z,44.45
2023-05-26T09:15:42.501Z,44.38
2023-05-26T09:16:44.513Z,44.19
2023-05-26T09:17:42.446Z,44.19
2023-05-26T09:18:42.373Z,44.16
2023-05-26T09:19:42.373Z,43.93
2023-05-26T09:20:42.455Z,43.76
2023-05-26T09:21:42.409Z,43.67
2023-05-26T09:22:42.215Z,43.78
2023-05-26T09:23:42.174Z,43.94
2023-05-26T09:24:42.133Z,44.00
2023-05-26T09:25:42.072Z,43.88
2023-05-26T09:26:42.407Z,43.49
2023-05-26T09:27:41.992Z,42.86
2023-05-26T09:28:41.956Z,42.66
2023-05-26T09:29:45.110Z,42.60
2023-05-26T09:30:41.990Z,42.61
2023-05-26T09:31:41.939Z,42.71
2023-05-26T09:32:41.903Z,42.63
2023-05-26T09:33:45.014Z,42.67
2023-05-26T09:34:44.907Z,42.72
2023-05-26T09:35:41.689Z,42.53
2023-05-26T09:36:49.400Z,42.64
2023-05-26T09:37:57.310Z,42.63
2023-05-26T09:38:44.907Z,42.56
2023-05-26T09:39:41.486Z,42.64
2023-05-26T09:40:41.452Z,42.47
2023-05-26T09:41:41.416Z,42.44
2023-05-26T09:42:41.386Z,42.23
2023-05-26T09:43:41.393Z,42.18
2023-05-26T09:44:41.917Z,42.27
2023-05-26T09:45:48.719Z,42.33
2023-05-26T09:46:42.455Z,42.33
2023-05-26T09:47:42.200Z,42.33
2023-05-26T09:48:44.408Z,42.39
2023-05-26T09:49:41.089Z,42.49
2023-05-26T09:50:41.051Z,42.40
2023-05-26T09:51:41.058Z,42.32
2023-05-26T09:52:41.440Z,42.41
2023-05-26T09:53:40.965Z,42.48
2023-05-26T09:54:40.944Z,42.51
2023-05-26T09:55:40.881Z,42.56
2023-05-26T09:56:40.926Z,42.58
2023-05-26T09:57:40.810Z,42.47
2023-05-26T09:58:40.769Z,42.27
2023-05-26T09:59:40.733Z,42.08
2023-05-26T10:00:40.754Z,42.04
2023-05-26T10:01:40.763Z,42.09
2023-05-26T10:02:40.733Z,42.13
2023-05-26T10:03:40.583Z,42.33
2023-05-26T10:04:40.654Z,42.41
2023-05-26T10:05:40.567Z,42.36
2023-05-26T10:06:40.478Z,42.45
2023-05-26T10:07:40.459Z,42.50
2023-05-26T10:08:40.392Z,42.43
2023-05-26T10:09:40.367Z,42.39
2023-05-26T10:10:43.512Z,42.46
2023-05-26T10:11:40.290Z,42.57
2023-05-26T10:12:40.237Z,42.52
2023-05-26T10:13:40.207Z,42.51
2023-05-26T10:14:40.164Z,42.45
2023-05-26T10:15:40.457Z,42.38
2023-05-26T10:16:40.185Z,42.43
2023-05-26T10:17:40.156Z,42.53
2023-05-26T10:18:39.995Z,42.59
2023-05-26T10:19:39.967Z,42.51
2023-05-26T10:20:40.551Z,42.44
2023-05-26T10:21:39.936Z,42.33
2023-05-26T10:22:39.836Z,42.30
2023-05-26T10:23:39.808Z,42.29
2023-05-26T10:24:39.762Z,42.41
2023-05-26T10:25:39.729Z,42.28
2023-05-26T10:26:39.960Z,42.21
2023-05-26T10:27:42.841Z,42.23
2023-05-26T10:28:39.610Z,42.26
2023-05-26T10:29:39.558Z,42.31
2023-05-26T10:30:42.703Z,42.28
2023-05-26T10:31:39.980Z,42.62
2023-05-26T10:32:39.492Z,42.50
2023-05-26T10:33:39.373Z,42.37
2023-05-26T10:34:40.516Z,42.42
2023-05-26T10:35:39.460Z,42.62
2023-05-26T10:36:39.275Z,42.32
2023-05-26T10:37:39.189Z,42.18
2023-05-26T10:38:39.492Z,42.21
2023-05-26T10:39:39.109Z,42.23
2023-05-26T10:40:39.090Z,42.33
2023-05-26T10:41:39.029Z,42.37
2023-05-26T10:42:38.991Z,42.27
2023-05-26T10:43:38.951Z,42.33
2023-05-26T10:44:38.913Z,42.29
2023-05-26T10:45:38.962Z,42.24
2023-05-26T10:46:38.973Z,42.16
2023-05-26T10:47:38.800Z,42.25
2023-05-26T10:48:38.743Z,42.14
2023-05-26T10:49:38.682Z,41.98
2023-05-26T10:50:38.651Z,41.71
2023-05-26T10:51:38.655Z,41.63
2023-05-26T10:52:38.973Z,41.51
2023-05-26T10:53:38.536Z,41.45
2023-05-26T10:54:38.474Z,41.31
2023-05-26T10:55:38.429Z,41.04
2023-05-26T10:56:38.413Z,41.20
2023-05-26T10:57:38.445Z,40.90
2023-05-26T10:58:38.388Z,40.65
2023-05-26T10:59:38.371Z,40.56
2023-05-26T11:00:38.432Z,40.57
2023-05-26T11:01:38.413Z,40.51
2023-05-26T11:02:38.468Z,40.36
2023-05-26T11:03:38.508Z,40.31
2023-05-26T11:04:38.436Z,40.24
2023-05-26T11:05:38.442Z,40.20
2023-05-26T11:06:38.462Z,40.07
2023-05-26T11:07:38.518Z,39.99
2023-05-26T11:08:38.472Z,39.68
2023-05-26T11:09:38.445Z,39.74
2023-05-26T11:10:38.457Z,39.70
2023-05-26T11:11:38.466Z,39.65
2023-05-26T11:12:39.948Z,39.29
2023-05-26T11:13:38.470Z,39.30
2023-05-26T11:14:38.473Z,38.93
2023-05-26T11:15:38.472Z,38.82
2023-05-26T11:16:39.511Z,38.70
2023-05-26T11:17:38.976Z,38.43
2023-05-26T11:18:38.523Z,38.31
2023-05-26T11:19:38.548Z,38.17
2023-05-26T11:20:38.607Z,37.94
2023-05-26T11:21:39.724Z,37.79
2023-05-26T11:22:38.954Z,37.85
2023-05-26T11:23:38.606Z,37.74
2023-05-26T11:24:39.629Z,37.78
2023-05-26T11:25:38.619Z,37.73
2023-05-26T11:26:38.963Z,37.78
2023-05-26T11:27:38.632Z,37.47
2023-05-26T11:28:38.666Z,37.14
2023-05-26T11:29:38.671Z,37.35
2023-05-26T11:30:38.710Z,37.15
2023-05-26T11:31:38.724Z,37.18
2023-05-26T11:32:38.689Z,37.20
2023-05-26T11:33:38.686Z,37.13
2023-05-26T11:34:38.705Z,37.16
2023-05-26T11:35:38.714Z,37.03
2023-05-26T11:36:38.732Z,37.00
2023-05-26T11:37:38.746Z,36.94
2023-05-26T11:38:38.784Z,36.83
2023-05-26T11:39:38.791Z,36.62
2023-05-26T11:40:38.987Z,36.67
2023-05-26T11:41:38.836Z,36.70
2023-05-26T11:42:38.879Z,36.66
2023-05-26T11:43:38.856Z,36.91
2023-05-26T11:44:38.863Z,37.27
2023-05-26T11:45:38.875Z,37.36
2023-05-26T11:46:38.918Z,37.44
2023-05-26T11:47:38.908Z,37.61
2023-05-26T11:48:38.926Z,37.69
2023-05-26T11:49:38.940Z,37.55
2023-05-26T11:50:38.960Z,37.63
2023-05-26T11:51:38.975Z,37.58
2023-05-26T11:52:38.997Z,37.90
2023-05-26T11:53:39.025Z,37.99
2023-05-26T11:54:39.043Z,37.94
2023-05-26T11:55:39.068Z,38.03
2023-05-26T11:56:39.117Z,38.15
2023-05-26T11:57:39.095Z,38.27
2023-05-26T11:58:39.112Z,38.42
2023-05-26T11:59:39.118Z,38.46
2023-05-26T12:00:39.122Z,38.62
2023-05-26T12:01:39.163Z,38.62
2023-05-26T12:02:39.235Z,38.87
2023-05-26T12:03:39.204Z,39.09
2023-05-26T12:04:39.218Z,39.17
2023-05-26T12:05:39.197Z,39.31
2023-05-26T12:06:39.596Z,39.58
2023-05-26T12:07:39.472Z,39.34
2023-05-26T12:08:39.247Z,39.28
2023-05-26T12:09:39.235Z,39.46
2023-05-26T12:10:39.256Z,40.13
2023-05-26T12:11:39.287Z,41.02
2023-05-26T12:12:39.306Z,40.91
2023-05-26T12:13:39.303Z,40.52
2023-05-26T12:14:39.322Z,40.09
2023-05-26T12:15:39.334Z,39.69
2023-05-26T12:16:39.518Z,39.62
2023-05-26T12:17:39.387Z,39.62
2023-05-26T12:18:39.382Z,39.46
2023-05-26T12:19:39.484Z,39.21
2023-05-26T12:20:45.036Z,39.12
2023-05-26T12:21:39.410Z,39.07
2023-05-26T12:22:39.317Z,39.10
2023-05-26T12:23:39.262Z,39.06
2023-05-26T12:24:39.211Z,38.97
2023-05-26T12:25:39.201Z,38.98
2023-05-26T12:26:39.130Z,39.00
2023-05-26T12:27:39.111Z,38.94
2023-05-26T12:28:39.063Z,38.93
2023-05-26T12:29:39.020Z,38.89
2023-05-26T12:30:48.652Z,38.74
2023-05-26T12:31:38.984Z,38.74
2023-05-26T12:32:38.920Z,38.58
2023-05-26T12:33:38.819Z,38.45
2023-05-26T12:34:38.769Z,38.42
2023-05-26T12:35:38.720Z,38.38
2023-05-26T12:36:38.674Z,38.29
2023-05-26T12:37:38.625Z,38.31
2023-05-26T12:38:38.583Z,38.15
2023-05-26T12:39:38.532Z,38.12
2023-05-26T12:40:38.483Z,38.08
2023-05-26T12:41:38.467Z,38.03
2023-05-26T12:42:38.404Z,37.94
2023-05-26T12:43:38.318Z,37.86
2023-05-26T12:44:38.302Z,37.75
2023-05-26T12:45:38.231Z,37.78
2023-05-26T12:46:38.162Z,37.84
2023-05-26T12:47:38.189Z,37.82
2023-05-26T12:48:38.184Z,37.76
2023-05-26T12:49:38.024Z,37.71
2023-05-26T12:50:37.982Z,37.71
2023-05-26T12:51:37.953Z,37.73
2023-05-26T12:52:37.869Z,37.67
2023-05-26T12:53:37.830Z,37.67
2023-05-26T12:54:37.770Z,37.64
2023-05-26T12:55:37.988Z,37.56
2023-05-26T12:56:37.696Z,37.50
2023-05-26T12:57:37.988Z,37.47
2023-05-26T12:58:37.568Z,37.41
2023-05-26T12:59:37.553Z,37.47
2023-05-26T13:00:37.592Z,37.43
2023-05-26T13:01:37.589Z,37.40
2023-05-26T13:02:38.110Z,37.42
2023-05-26T13:03:38.685Z,37.37